Imperial Beach, CA (91933)

12:13 PM PDT on August 27, 2016 (GMT -0700)
KCAIMPER2 | | Change Station

Elev 14 ft 32.58 °N, 117.13 °W | Updated 10 minutes ago

Overcast
Overcast
68.3 °F
Feels Like 68.3 °F
N
6.0
Wind Variable Wind from West
Gusts 9.0 mph

Today
High -- | Low -- °F
--% Chance of Precip.
Yesterday
High -- | Low -- °F
Precip. -- in
Pressure 30.00 in
Visibility 10.0 miles
Clouds Overcast 2500 ft
Dew Point 60 °F
Humidity 76%
Rainfall 0.00 in
Snow Depth Not available.
6:20 AM 7:18 PM
Waning Crescent, 22% visible
METAR KNRS 271856Z AUTO 30009KT 10SM OVC025 22/14 A3000 RMK AO2 SLP159 T02220144 $
Pressure 30.00 in
Visibility 10.0 miles
Clouds Overcast 2500 ft
Dew Point 60 °F
Humidity 76%
Rainfall 0.00 in
Snow Depth Not available.
6:20 AM 7:18 PM
Waning Crescent, 22% visible
METAR KNRS 271856Z AUTO 30009KT 10SM OVC025 22/14 A3000 RMK AO2 SLP159 T02220144 $

10-Day Weather Forecast

Almanac

Astronomy

Aug. 27, 2016 Rise Set
Actual Time
Civil Twilight
Nautical Twilight
Astronomical Twilight
Moon
Length of Visible Light
Length of Day
Tomorrow will be .
, % of the Moon is Illuminated

Today's Extremes

State Highs State Lows

Community

WunderPhotos

Upload Photos

1,935,411 photos uploaded!

WunderBlog® & News

Nearby

Air Quality

  Air Quality AQ Index Pollutant
Not available.

Snow Depth

Station Depth Elevation

Earthquake Activity

City Distance Mag. Time & Date
Minimum magnitude displayed is 2.5.

Coastal Water Temperatures

Place Temperature

Stations

Nearby Weather Stations

Station Location Temp. Windchill Dew Point Humidity Wind Precip. Elev Updated Type
                   

Watches & Warnings

There are currently no watches in effect.